Time;durP1;ratioP1;P1;durP2;ratioP2;P2;SDS_P1;SDS_P2;PMS_P1;PMS_P2;Temp;Humidity;BMP_temperature;BMP_pressure;BME280_temperature;BME280_humidity;BME280_pressure;Samples;Min_cycle;Max_cycle;Signal;HPM_P1;HPM_P2
2021/10/28 00:34:12;;;;;;;33.25;22.10;;;;;;;8.32;100.00;102365.44;5768306;23;20039;-71
2021/10/28 00:36:58;;;;;;;34.95;23.63;;;;;;;8.55;100.00;102353.63;4956593;29;20525;-69
2021/10/28 00:39:44;;;;;;;35.47;23.33;;;;;;;8.66;100.00;102354.72;4941998;29;20373;-71
2021/10/28 00:42:30;;;;;;;38.58;24.25;;;;;;;8.62;100.00;102352.91;4955324;29;20070;-71
2021/10/28 00:45:15;;;;;;;32.80;23.23;;;;;;;8.32;100.00;102353.25;4942071;29;20034;-70
2021/10/28 00:48:01;;;;;;;33.25;22.65;;;;;;;8.32;100.00;102352.41;4956465;29;20027;-70
2021/10/28 00:50:53;;;;;;;33.20;21.75;;;;;;;7.99;100.00;102349.09;4955545;29;20050;-69
2021/10/28 00:53:39;;;;;;;34.78;23.48;;;;;;;8.29;100.00;102341.88;4955955;29;20036;-70
2021/10/28 01:44:04;;;;;;;31.23;20.87;;;;;;;8.46;100.00;102324.75;6032061;23;20401;31
2021/10/28 03:06:41;;;;;;;30.38;21.45;;;;;;;8.22;100.00;102333.06;4991233;23;20047;-71
2021/10/28 03:09:28;;;;;;;33.47;22.77;;;;;;;8.08;100.00;102331.88;4956589;29;20081;-70
2021/10/28 03:12:14;;;;;;;31.67;22.65;;;;;;;8.02;100.00;102331.78;4943502;29;20073;-70
2021/10/28 03:15:03;;;;;;;32.90;23.35;;;;;;;8.30;100.00;102341.03;4957723;29;20039;-70
2021/10/28 03:19:03;;;;;;;39.38;25.05;;;;;;;8.01;100.00;102339.59;4955672;29;20174;-70
2021/10/28 05:41:19;;;;;;;29.48;21.75;;;;;;;-140.66;100.00;55571.53;5700991;23;20051;-71
2021/10/28 05:44:05;;;;;;;30.17;22.25;;;;;;;-140.66;100.00;55571.53;4958493;29;20074;-72
2021/10/28 05:46:50;;;;;;;32.33;22.60;;;;;;;-140.66;100.00;55571.53;4958502;29;20027;-72
2021/10/28 05:49:36;;;;;;;32.45;22.80;;;;;;;-140.66;100.00;55571.53;4958854;29;20039;-71
2021/10/28 05:52:23;;;;;;;37.25;25.08;;;;;;;-140.66;100.00;55571.53;4958682;29;20035;-71
2021/10/28 05:55:10;;;;;;;48.22;30.65;;;;;;;-140.66;100.00;55571.53;4957565;29;20086;-72
2021/10/28 05:57:56;;;;;;;48.83;27.65;;;;;;;-140.66;100.00;55571.53;4957956;29;20031;-70
2021/10/28 06:00:42;;;;;;;48.30;29.42;;;;;;;-140.66;100.00;55571.53;4957562;29;20071;-72
2021/10/28 06:25:20;;;;;;;68.18;35.60;;;;;;;-140.66;100.00;55571.53;5205182;23;20091;-71
2021/10/28 06:28:06;;;;;;;67.90;38.08;;;;;;;-140.66;100.00;55571.53;4958346;29;20031;-71
2021/10/28 06:30:52;;;;;;;65.18;37.90;;;;;;;-140.66;100.00;55571.53;4957845;29;20106;-70
2021/10/28 06:33:46;;;;;;;67.97;37.38;;;;;;;-140.66;100.00;55571.53;4956968;29;20087;-72
2021/10/28 06:36:35;;;;;;;67.28;37.42;;;;;;;-140.66;100.00;55571.53;4957124;29;20038;-71
2021/10/28 06:39:21;;;;;;;65.05;37.83;;;;;;;-140.66;100.00;55571.53;4956868;29;20066;-71
2021/10/28 11:19:20;;;;;;;24.20;16.98;;;;;;;-140.66;100.00;55571.53;4937788;29;20361;-70
2021/10/28 12:45:47;;;;;;;23.02;14.90;;;;;;;-140.66;100.00;55571.53;4955578;29;20031;-69
2021/10/28 12:54:49;;;;;;;22.13;14.68;;;;;;;-140.66;100.00;55571.53;4955470;29;20094;-70
2021/10/28 15:56:09;;;;;;;57.92;31.05;;;;;;;-140.66;100.00;55571.53;4956533;29;20362;-70
2021/10/28 16:23:37;;;;;;;123.03;70.78;;;;;;;-140.66;100.00;55571.53;4955687;29;20034;-69
2021/10/28 16:26:24;;;;;;;126.25;74.38;;;;;;;-140.66;100.00;55571.53;4941904;29;20034;-70
2021/10/28 16:29:12;;;;;;;131.95;74.10;;;;;;;-140.66;100.00;55571.53;4955677;29;20067;-70
2021/10/28 16:31:58;;;;;;;139.70;77.55;;;;;;;-140.66;100.00;55571.53;4942319;29;20031;-70
2021/10/28 16:34:44;;;;;;;120.90;74.60;;;;;;;-140.66;100.00;55571.53;4955676;29;20039;-70
2021/10/28 16:37:30;;;;;;;127.72;74.50;;;;;;;-140.66;100.00;55571.53;4955340;29;20042;-70
2021/10/28 16:40:16;;;;;;;128.38;77.22;;;;;;;-140.66;100.00;55571.53;4955764;29;20031;-69
2021/10/28 16:43:02;;;;;;;122.03;69.15;;;;;;;-140.66;100.00;55571.53;4955535;29;20073;-70
2021/10/28 16:45:48;;;;;;;132.05;71.00;;;;;;;-140.66;100.00;55571.53;4955173;29;20054;-70
2021/10/28 16:48:35;;;;;;;135.30;71.10;;;;;;;-140.66;100.00;55571.53;4958084;29;20090;-70
2021/10/28 16:51:21;;;;;;;137.23;73.80;;;;;;;-140.66;100.00;55571.53;4956325;29;20046;-70
2021/10/28 16:54:08;;;;;;;146.88;78.88;;;;;;;-140.66;100.00;55571.53;4945289;29;20038;-69
2021/10/28 16:56:54;;;;;;;136.35;78.47;;;;;;;-140.66;100.00;55571.53;4959641;29;20126;-69
2021/10/28 16:59:40;;;;;;;130.45;74.43;;;;;;;-140.66;100.00;55571.53;4959750;29;20041;-70
2021/10/28 18:14:27;;;;;;;216.45;125.28;;;;;;;-140.66;100.00;55571.53;5866519;23;20044;-70
2021/10/28 18:17:14;;;;;;;243.32;146.68;;;;;;;-140.66;100.00;55571.53;4938623;29;20047;-69
2021/10/28 18:20:02;;;;;;;231.75;143.77;;;;;;;-140.66;100.00;55571.53;4939123;29;20027;-70
2021/10/28 18:22:48;;;;;;;181.23;111.30;;;;;;;-140.66;100.00;55571.53;4939716;29;20039;-70
2021/10/28 18:25:34;;;;;;;134.48;85.53;;;;;;;-140.66;100.00;55571.53;4938026;29;20031;-70
2021/10/28 18:28:23;;;;;;;155.15;93.90;;;;;;;-140.66;100.00;55571.53;4938558;29;20027;-69
2021/10/28 18:31:09;;;;;;;126.90;76.95;;;;;;;-140.66;100.00;55571.53;4939537;29;20031;-69
2021/10/28 18:33:58;;;;;;;162.18;99.05;;;;;;;-140.66;100.00;55571.53;4939981;29;20370;-69
2021/10/28 18:36:45;;;;;;;157.95;97.70;;;;;;;-140.66;100.00;55571.53;4938155;29;20043;-70
2021/10/28 18:39:31;;;;;;;164.65;101.45;;;;;;;-140.66;100.00;55571.53;4938284;29;20107;-69
2021/10/28 18:42:17;;;;;;;169.70;104.38;;;;;;;-140.66;100.00;55571.53;4924080;29;20098;-70
2021/10/28 18:45:05;;;;;;;161.68;103.53;;;;;;;-140.66;100.00;55571.53;4938509;29;20063;-69
2021/10/28 18:47:51;;;;;;;164.38;98.35;;;;;;;-140.66;100.00;55571.53;4939449;29;20118;-70
2021/10/28 18:50:37;;;;;;;155.38;97.13;;;;;;;-140.66;100.00;55571.53;4937575;29;20031;-70
2021/10/28 18:53:23;;;;;;;150.30;93.70;;;;;;;-140.66;100.00;55571.53;4938961;29;20354;-69
2021/10/28 18:56:10;;;;;;;143.98;87.63;;;;;;;-140.66;100.00;55571.53;4937857;29;20115;-69
2021/10/28 18:58:56;;;;;;;118.05;71.00;;;;;;;-140.66;100.00;55571.53;4938679;29;20036;-69
2021/10/28 19:01:43;;;;;;;120.22;71.80;;;;;;;-140.66;100.00;55571.53;4937957;29;20118;-70
2021/10/28 20:31:19;;;;;;;68.82;44.58;;;;;;;-140.66;100.00;55571.53;5657160;23;20051;-70
2021/10/28 20:37:06;;;;;;;66.80;41.53;;;;;;;-140.66;100.00;55571.53;4956336;29;20034;-70
2021/10/28 20:39:51;;;;;;;67.45;42.45;;;;;;;-140.66;100.00;55571.53;4955705;29;20027;-71
2021/10/28 20:42:39;;;;;;;61.97;40.58;;;;;;;-140.66;100.00;55571.53;4955643;29;20027;-70
2021/10/28 20:45:26;;;;;;;67.38;42.20;;;;;;;-140.66;100.00;55571.53;4955296;29;20094;-70
2021/10/28 20:48:11;;;;;;;64.88;42.50;;;;;;;-140.66;100.00;55571.53;4942103;29;20023;-71
2021/10/28 20:50:57;;;;;;;64.22;41.40;;;;;;;-140.66;100.00;55571.53;4955440;29;20027;-70
2021/10/28 20:53:43;;;;;;;64.90;43.58;;;;;;;-140.66;100.00;55571.53;4955995;29;20031;-70
2021/10/28 20:56:29;;;;;;;68.60;44.25;;;;;;;-140.66;100.00;55571.53;4955002;29;20373;-70
2021/10/28 20:59:15;;;;;;;64.43;42.58;;;;;;;-140.66;100.00;55571.53;4955720;29;20046;-70
2021/10/28 21:02:01;;;;;;;68.43;45.13;;;;;;;-140.66;100.00;55571.53;4955162;29;20041;-70
2021/10/28 21:04:47;;;;;;;68.00;44.40;;;;;;;-140.66;100.00;55571.53;4941902;29;20121;-71
2021/10/28 21:07:33;;;;;;;68.70;45.28;;;;;;;-140.66;100.00;55571.53;4954935;29;20039;-70
2021/10/28 21:10:25;;;;;;;71.10;46.58;;;;;;;-140.66;100.00;55571.53;4955252;29;20113;-70
2021/10/28 21:13:11;;;;;;;74.20;48.95;;;;;;;-140.66;100.00;55571.53;4956061;29;20414;-70
2021/10/28 21:15:56;;;;;;;77.10;49.50;;;;;;;-140.66;100.00;55571.53;4956173;29;20101;-70
2021/10/28 21:18:42;;;;;;;76.57;47.05;;;;;;;-140.66;100.00;55571.53;4955010;29;20070;-71
2021/10/28 21:21:28;;;;;;;76.90;48.85;;;;;;;-140.66;100.00;55571.53;4955315;29;20118;-70
2021/10/28 21:24:14;;;;;;;73.75;47.15;;;;;;;-140.66;100.00;55571.53;4954897;29;20082;-71
2021/10/28 21:27:01;;;;;;;79.97;48.42;;;;;;;-140.66;100.00;55571.53;4954696;29;20038;-70
2021/10/28 21:29:47;;;;;;;77.55;48.65;;;;;;;-140.66;100.00;55571.53;4955418;29;20038;-69
2021/10/28 21:32:33;;;;;;;73.50;48.63;;;;;;;-140.66;100.00;55571.53;4954548;29;20129;-71
2021/10/28 21:35:19;;;;;;;73.30;47.85;;;;;;;-140.66;100.00;55571.53;4954663;29;20033;-71
2021/10/28 21:38:05;;;;;;;69.68;45.75;;;;;;;-140.66;100.00;55571.53;4954951;29;20027;-70
2021/10/28 21:40:52;;;;;;;76.15;48.85;;;;;;;-140.66;100.00;55571.53;4957034;29;20046;-70
2021/10/28 21:43:38;;;;;;;78.65;51.10;;;;;;;-140.66;100.00;55571.53;4944997;29;20410;-71
2021/10/28 21:46:24;;;;;;;75.60;50.15;;;;;;;-140.66;100.00;55571.53;4958392;29;20047;-71
2021/10/28 21:49:10;;;;;;;75.38;48.72;;;;;;;-140.66;100.00;55571.53;4958486;29;20326;-70
2021/10/28 21:51:59;;;;;;;77.75;50.95;;;;;;;-140.66;100.00;55571.53;4959184;29;20426;-70
2021/10/28 21:54:55;;;;;;;80.38;52.05;;;;;;;-140.66;100.00;55571.53;4957727;29;20031;-70
2021/10/28 22:25:08;;;;;;;96.88;59.97;;;;;;;-140.66;100.00;55571.53;4957181;29;20038;-70
2021/10/28 22:27:54;;;;;;;99.88;60.30;;;;;;;-140.66;100.00;55571.53;4958551;29;20047;-70
2021/10/28 22:30:40;;;;;;;100.68;64.20;;;;;;;-140.66;100.00;55571.53;4957741;29;20027;-70
2021/10/28 22:33:26;;;;;;;101.57;63.60;;;;;;;-140.66;100.00;55571.53;4943782;29;20178;-70
2021/10/28 22:36:18;;;;;;;110.25;67.78;;;;;;;-140.66;100.00;55571.53;4958088;29;20031;-70
2021/10/28 22:39:10;;;;;;;112.07;67.07;;;;;;;-140.66;100.00;55571.53;4957302;29;20065;-70
2021/10/28 22:41:56;;;;;;;105.35;66.20;;;;;;;-140.66;100.00;55571.53;4943890;29;20031;-70
2021/10/28 22:44:42;;;;;;;115.32;67.35;;;;;;;-140.66;100.00;55571.53;4956850;29;20054;-70
2021/10/28 22:47:28;;;;;;;106.63;66.32;;;;;;;-140.66;100.00;55571.53;4957465;29;20070;-70
2021/10/28 22:50:14;;;;;;;110.93;70.35;;;;;;;-140.66;100.00;55571.53;4957022;28;20045;-69
2021/10/28 22:53:03;;;;;;;103.97;66.97;;;;;;;-140.66;100.00;55571.53;4957418;29;20094;-70
2021/10/28 22:55:48;;;;;;;113.13;71.28;;;;;;;-140.66;100.00;55571.53;4957034;29;20466;-70
2021/10/28 22:58:36;;;;;;;109.88;71.53;;;;;;;-140.66;100.00;55571.53;4943562;29;20513;-70
2021/10/28 23:01:29;;;;;;;126.68;76.53;;;;;;;-140.66;100.00;55571.53;4957461;29;20046;-70
2021/10/28 23:07:21;;;;;;;121.85;75.93;;;;;;;-140.66;100.00;55571.53;4957235;29;20442;-70
2021/10/28 23:16:26;;;;;;;118.50;75.53;;;;;;;-140.66;100.00;55571.53;4956361;29;20118;-70
2021/10/28 23:22:16;;;;;;;122.30;75.10;;;;;;;-140.66;100.00;55571.53;4956376;29;20039;-70
2021/10/28 23:25:03;;;;;;;119.88;78.57;;;;;;;-140.66;100.00;55571.53;4942773;29;20082;-70
2021/10/28 23:27:48;;;;;;;120.57;76.60;;;;;;;-140.66;100.00;55571.53;4942836;29;20023;-69
2021/10/28 23:30:35;;;;;;;116.57;70.30;;;;;;;-140.66;100.00;55571.53;4955799;28;20031;-70
2021/10/28 23:33:23;;;;;;;106.47;70.25;;;;;;;-140.66;100.00;55571.53;4956165;29;20043;-70
2021/10/28 23:36:09;;;;;;;107.85;70.38;;;;;;;-140.66;100.00;55571.53;4942904;29;20068;-70
2021/10/28 23:38:54;;;;;;;105.82;68.20;;;;;;;-140.66;100.00;55571.53;4955978;29;20046;-70
2021/10/28 23:41:41;;;;;;;117.57;73.75;;;;;;;-140.66;100.00;55571.53;4955809;29;20027;-69
2021/10/28 23:44:26;;;;;;;107.68;67.93;;;;;;;-140.66;100.00;55571.53;4955345;29;20031;-70
2021/10/28 23:47:12;;;;;;;101.97;65.15;;;;;;;-140.66;100.00;55571.53;4955986;29;20118;-70
2021/10/28 23:49:58;;;;;;;96.88;63.83;;;;;;;-140.66;100.00;55571.53;4955450;29;20117;-70
2021/10/28 23:52:44;;;;;;;98.65;63.92;;;;;;;-140.66;100.00;55571.53;4956167;29;20473;-70
2021/10/28 23:55:30;;;;;;;96.00;60.85;;;;;;;-140.66;100.00;55571.53;4956151;29;20123;-70
2021/10/28 23:58:15;;;;;;;100.88;63.40;;;;;;;-140.66;100.00;55571.53;4956378;29;20501;-69
